createdAt,value
2022-12-16T00:00:20.728Z,2.22
2022-12-16T00:02:55.525Z,2.31
2022-12-16T00:05:30.855Z,2.34
2022-12-16T00:08:31.727Z,2.22
2022-12-16T00:11:10.449Z,2.30
2022-12-16T00:13:46.700Z,2.29
2022-12-16T00:16:19.613Z,2.25
2022-12-16T00:19:01.650Z,2.29
2022-12-16T00:21:33.520Z,2.39
2022-12-16T00:24:17.393Z,2.30
2022-12-16T00:26:59.702Z,2.30
2022-12-16T00:29:38.681Z,2.22
2022-12-16T00:32:12.902Z,2.05
2022-12-16T00:34:48.574Z,2.00
2022-12-16T00:37:22.480Z,1.76
2022-12-16T00:39:53.876Z,1.57
2022-12-16T00:42:26.198Z,1.63
2022-12-16T00:44:58.376Z,1.63
2022-12-16T00:47:38.556Z,1.70
2022-12-16T00:50:14.022Z,1.73
2022-12-16T00:52:55.432Z,1.77
2022-12-16T00:55:39.256Z,1.93
2022-12-16T00:58:21.135Z,2.06
2022-12-16T01:00:56.269Z,2.10
2022-12-16T01:03:27.497Z,2.03
2022-12-16T01:06:03.095Z,2.17
2022-12-16T01:08:36.144Z,2.03
2022-12-16T01:11:15.732Z,2.29
2022-12-16T01:13:50.795Z,2.30
2022-12-16T01:16:23.961Z,2.35
2022-12-16T01:18:56.664Z,2.39
2022-12-16T01:21:32.604Z,2.33
2022-12-16T01:24:06.085Z,2.34
2022-12-16T01:26:42.218Z,2.29
2022-12-16T01:29:19.497Z,2.44
2022-12-16T01:32:12.381Z,2.39
2022-12-16T01:34:55.264Z,2.46
2022-12-16T01:37:35.677Z,2.44
2022-12-16T01:40:17.647Z,2.47
2022-12-16T01:42:54.642Z,2.54
2022-12-16T01:45:40.409Z,2.59
2022-12-16T01:48:31.292Z,2.63
2022-12-16T01:51:13.188Z,2.54
2022-12-16T01:53:56.080Z,2.69
2022-12-16T01:56:37.950Z,2.71
2022-12-16T01:59:13.792Z,2.65
2022-12-16T02:01:52.903Z,2.76
2022-12-16T02:04:36.730Z,2.64
2022-12-16T02:07:08.484Z,2.50
2022-12-16T02:09:38.266Z,2.69
2022-12-16T02:12:32.609Z,2.68
2022-12-16T02:15:38.073Z,2.62
2022-12-16T02:18:22.175Z,2.50
2022-12-16T02:21:44.138Z,2.58
2022-12-16T02:25:11.749Z,2.61
2022-12-16T02:28:09.122Z,2.66
2022-12-16T02:31:27.835Z,2.60
2022-12-16T02:34:22.559Z,2.68
2022-12-16T02:37:10.368Z,2.72
2022-12-16T02:39:48.276Z,2.78
2022-12-16T02:42:32.765Z,2.72
2022-12-16T02:45:13.816Z,2.84
2022-12-16T02:47:51.102Z,2.66
2022-12-16T02:50:25.686Z,2.71
2022-12-16T02:53:25.304Z,2.68
2022-12-16T02:56:42.636Z,2.86
2022-12-16T02:59:28.226Z,2.90
2022-12-16T03:02:10.362Z,2.96
2022-12-16T03:04:54.452Z,3.04
2022-12-16T03:07:33.177Z,3.09
2022-12-16T03:10:15.562Z,3.11
2022-12-16T03:12:49.325Z,3.11
2022-12-16T03:15:26.735Z,3.05
2022-12-16T03:18:01.098Z,3.02
2022-12-16T03:20:48.324Z,2.97
2022-12-16T03:23:25.094Z,2.91
2022-12-16T03:26:12.876Z,2.89
2022-12-16T03:29:00.574Z,2.98
2022-12-16T03:31:39.672Z,3.16
2022-12-16T03:34:21.716Z,3.08
2022-12-16T03:37:25.091Z,2.99
2022-12-16T03:39:59.914Z,3.14
2022-12-16T03:42:32.258Z,3.22
2022-12-16T03:45:05.723Z,3.20
2022-12-16T03:47:38.791Z,3.32
2022-12-16T03:50:18.123Z,3.19
2022-12-16T03:53:15.761Z,3.29
2022-12-16T03:55:54.555Z,3.18
2022-12-16T03:58:28.301Z,3.10
2022-12-16T04:01:02.587Z,2.93
2022-12-16T04:03:34.425Z,3.21
2022-12-16T04:06:04.631Z,3.31
2022-12-16T04:08:38.011Z,3.20
2022-12-16T04:11:25.888Z,3.09
2022-12-16T04:14:14.175Z,3.11
2022-12-16T04:17:08.545Z,3.08
2022-12-16T04:20:12.135Z,3.06
2022-12-16T04:23:14.602Z,3.28
2022-12-16T04:26:04.770Z,3.19
2022-12-16T04:28:40.852Z,3.17
2022-12-16T04:31:16.492Z,3.18
2022-12-16T04:34:03.215Z,3.41
2022-12-16T04:36:53.297Z,3.48
2022-12-16T04:39:49.812Z,3.37
2022-12-16T04:42:42.179Z,3.44
2022-12-16T04:45:31.131Z,3.58
2022-12-16T04:48:18.350Z,3.50
2022-12-16T04:51:09.544Z,3.41
2022-12-16T04:53:58.643Z,3.34
2022-12-16T04:56:47.834Z,3.57
2022-12-16T04:59:37.005Z,3.48
2022-12-16T05:02:26.947Z,3.44
2022-12-16T05:05:14.784Z,3.55
2022-12-16T05:08:03.356Z,3.62
2022-12-16T05:10:49.839Z,3.63
2022-12-16T05:13:39.785Z,3.58
2022-12-16T05:16:43.646Z,3.72
2022-12-16T05:19:32.328Z,3.77
2022-12-16T05:22:24.224Z,3.62
2022-12-16T05:25:19.520Z,3.70
2022-12-16T05:28:14.846Z,3.58
2022-12-16T05:31:07.884Z,3.40
2022-12-16T05:34:12.759Z,3.17
2022-12-16T05:37:03.924Z,3.04
2022-12-16T05:39:51.993Z,3.07
2022-12-16T05:42:40.562Z,2.99
2022-12-16T05:45:31.974Z,2.86
2022-12-16T05:48:23.281Z,2.98
2022-12-16T05:51:20.949Z,2.88
2022-12-16T05:54:14.246Z,2.98
2022-12-16T05:57:00.695Z,2.79
2022-12-16T05:59:49.085Z,2.85
2022-12-16T06:02:42.444Z,2.94
2022-12-16T06:05:34.334Z,2.96
2022-12-16T06:08:24.555Z,2.80
2022-12-16T06:11:13.202Z,2.86
2022-12-16T06:14:02.303Z,2.92
2022-12-16T06:16:54.079Z,2.82
2022-12-16T06:19:41.722Z,2.60
2022-12-16T06:22:28.713Z,2.49
2022-12-16T06:25:34.228Z,2.48
2022-12-16T06:28:31.576Z,2.42
2022-12-16T06:31:20.208Z,2.43
2022-12-16T06:34:11.790Z,2.60
2022-12-16T06:36:59.750Z,2.61
2022-12-16T06:39:52.772Z,2.49
2022-12-16T06:45:57.257Z,2.53
2022-12-16T06:48:46.084Z,2.60
2022-12-16T06:51:51.014Z,2.51
2022-12-16T06:54:43.757Z,2.41
2022-12-16T06:57:32.865Z,2.24
2022-12-16T07:00:26.769Z,2.47
2022-12-16T07:03:20.115Z,2.34
2022-12-16T07:06:12.892Z,2.55
2022-12-16T07:09:05.615Z,2.59
2022-12-16T07:11:59.768Z,2.54
2022-12-16T07:14:48.928Z,2.45
2022-12-16T07:17:44.638Z,2.50
2022-12-16T07:20:47.351Z,2.44
2022-12-16T07:23:39.827Z,2.25
2022-12-16T07:26:33.994Z,2.29
2022-12-16T07:29:25.643Z,2.22
2022-12-16T07:32:16.915Z,2.18
2022-12-16T07:35:37.464Z,2.13
2022-12-16T07:38:29.502Z,2.23
2022-12-16T07:41:23.275Z,2.27
2022-12-16T07:44:15.788Z,2.37
2022-12-16T07:47:06.369Z,2.30
2022-12-16T07:49:56.491Z,2.29
2022-12-16T07:52:45.719Z,2.43
2022-12-16T07:55:34.777Z,2.32
2022-12-16T07:58:23.872Z,2.36
2022-12-16T08:01:15.065Z,2.33
2022-12-16T08:04:03.491Z,2.43
2022-12-16T08:06:51.330Z,2.35
2022-12-16T08:09:42.962Z,2.25
2022-12-16T08:12:32.016Z,2.23
2022-12-16T08:15:19.412Z,2.20
2022-12-16T08:18:09.157Z,2.15
2022-12-16T08:20:58.291Z,2.00
2022-12-16T08:23:46.757Z,2.05
2022-12-16T08:26:40.586Z,2.00
2022-12-16T08:29:45.931Z,1.99
2022-12-16T08:32:44.507Z,1.96
2022-12-16T08:35:35.013Z,1.93
2022-12-16T08:38:24.063Z,1.84
2022-12-16T08:41:17.604Z,1.97
2022-12-16T08:44:23.904Z,1.80
2022-12-16T08:47:11.930Z,1.81
2022-12-16T08:53:05.710Z,1.84
2022-12-16T08:59:11.038Z,1.90
2022-12-16T09:01:59.387Z,1.90
2022-12-16T09:04:46.832Z,1.87
2022-12-16T09:07:39.038Z,1.79
2022-12-16T09:10:26.879Z,1.89
2022-12-16T09:13:38.165Z,1.86
2022-12-16T09:16:31.372Z,1.83
2022-12-16T09:19:19.890Z,1.96
2022-12-16T09:22:10.505Z,1.96
2022-12-16T09:24:57.888Z,1.97
2022-12-16T09:27:44.092Z,2.01
2022-12-16T09:30:36.349Z,2.00
2022-12-16T09:33:25.879Z,2.02
2022-12-16T09:36:16.035Z,2.05
2022-12-16T09:39:04.929Z,2.01
2022-12-16T09:42:03.760Z,2.05
2022-12-16T09:45:36.013Z,2.00
2022-12-16T09:48:44.949Z,2.02
2022-12-16T09:51:39.428Z,1.99
2022-12-16T09:54:59.088Z,2.03
2022-12-16T09:57:49.872Z,2.06
2022-12-16T10:00:44.972Z,1.98
2022-12-16T10:03:42.685Z,2.08
2022-12-16T10:06:49.975Z,2.03
2022-12-16T10:09:50.590Z,2.13
2022-12-16T10:13:04.877Z,2.07
2022-12-16T10:16:24.139Z,2.12
2022-12-16T10:19:25.920Z,2.15
2022-12-16T10:22:29.924Z,2.17
2022-12-16T10:25:29.071Z,2.19
2022-12-16T10:28:40.648Z,2.15
2022-12-16T10:31:40.446Z,2.29
2022-12-16T10:34:52.033Z,2.28
2022-12-16T10:37:54.924Z,2.28
2022-12-16T10:40:56.707Z,2.28
2022-12-16T10:44:01.984Z,2.30
2022-12-16T10:46:56.283Z,2.32
2022-12-16T10:50:11.154Z,2.31
2022-12-16T10:53:06.943Z,2.30
2022-12-16T10:56:21.647Z,2.28
2022-12-16T10:59:15.181Z,2.34
2022-12-16T11:02:29.639Z,2.34
2022-12-16T11:05:43.009Z,2.34
2022-12-16T11:08:46.958Z,2.34
2022-12-16T11:11:42.043Z,2.32
2022-12-16T11:15:05.383Z,2.36
2022-12-16T11:17:53.941Z,2.35
2022-12-16T11:20:46.375Z,2.32
2022-12-16T11:23:41.784Z,2.33
2022-12-16T11:26:41.243Z,2.32
2022-12-16T11:29:35.129Z,2.34
2022-12-16T11:32:33.862Z,2.38
2022-12-16T11:35:21.352Z,2.40
2022-12-16T11:39:05.370Z,2.44
2022-12-16T11:42:01.118Z,2.43
2022-12-16T11:45:00.388Z,2.45
2022-12-16T11:48:18.022Z,2.48
2022-12-16T11:51:19.090Z,2.41
2022-12-16T11:54:18.492Z,2.50
2022-12-16T11:57:09.399Z,2.45
2022-12-16T11:59:59.889Z,2.56
2022-12-16T12:02:55.196Z,2.49
2022-12-16T12:05:49.969Z,2.57
2022-12-16T12:08:45.810Z,2.49
2022-12-16T12:11:45.011Z,2.62
2022-12-16T12:14:48.557Z,2.67
2022-12-16T12:17:50.956Z,2.67
2022-12-16T12:21:08.495Z,2.69
2022-12-16T12:24:20.338Z,2.70
2022-12-16T12:27:22.339Z,2.75
2022-12-16T12:30:22.868Z,2.76
2022-12-16T12:33:29.124Z,2.83
2022-12-16T12:36:27.496Z,2.86
2022-12-16T12:39:35.836Z,2.92
2022-12-16T12:42:51.897Z,2.95
2022-12-16T12:46:09.906Z,3.06
2022-12-16T12:49:08.844Z,3.12
2022-12-16T12:52:20.362Z,3.17
2022-12-16T12:55:26.288Z,3.34
2022-12-16T12:58:29.212Z,3.41
2022-12-16T13:01:22.868Z,3.63
2022-12-16T13:04:21.720Z,3.77
2022-12-16T13:07:11.994Z,3.89
2022-12-16T13:12:52.429Z,4.23
2022-12-16T13:16:02.921Z,4.30
2022-12-16T13:18:57.965Z,4.41
2022-12-16T13:22:09.635Z,4.38
2022-12-16T13:25:03.004Z,4.26
2022-12-16T13:28:14.113Z,4.22
2022-12-16T13:31:25.883Z,4.28
2022-12-16T13:34:18.489Z,4.22
2022-12-16T13:37:17.853Z,4.30
2022-12-16T13:40:26.077Z,4.24
2022-12-16T13:43:18.193Z,4.23
2022-12-16T13:46:36.671Z,4.15
2022-12-16T13:50:05.612Z,4.03
2022-12-16T13:53:07.254Z,3.94
2022-12-16T13:56:15.509Z,3.90
2022-12-16T13:59:15.933Z,3.87
2022-12-16T14:02:14.580Z,3.88
2022-12-16T14:05:05.587Z,3.89
2022-12-16T14:07:59.188Z,3.91
2022-12-16T14:10:54.109Z,3.85
2022-12-16T14:13:50.647Z,3.92
2022-12-16T14:16:53.924Z,3.87
2022-12-16T14:20:01.292Z,3.89
2022-12-16T14:23:10.877Z,3.83
2022-12-16T14:26:06.691Z,3.83
2022-12-16T14:29:00.030Z,3.78
2022-12-16T14:31:54.817Z,3.70
2022-12-16T14:34:52.056Z,3.67
2022-12-16T14:37:53.604Z,3.53
2022-12-16T14:40:47.920Z,3.57
2022-12-16T14:46:49.673Z,3.38
2022-12-16T14:49:47.969Z,3.47
2022-12-16T14:52:45.958Z,3.43
2022-12-16T14:55:39.057Z,3.34
2022-12-16T14:58:34.890Z,3.34
2022-12-16T15:01:32.475Z,3.25
2022-12-16T15:04:33.094Z,3.18
2022-12-16T15:07:38.869Z,3.14
2022-12-16T15:14:03.706Z,2.91
2022-12-16T15:16:57.328Z,2.79
2022-12-16T15:19:49.292Z,2.86
2022-12-16T15:22:37.313Z,2.83
2022-12-16T15:25:40.198Z,2.82
2022-12-16T15:28:44.197Z,2.72
2022-12-16T15:31:45.307Z,2.69
2022-12-16T15:34:50.222Z,2.67
2022-12-16T15:37:45.055Z,2.99
2022-12-16T15:40:46.843Z,3.04
2022-12-16T15:43:47.127Z,3.11
2022-12-16T15:46:42.641Z,3.14
2022-12-16T15:49:42.193Z,3.04
2022-12-16T15:52:57.155Z,3.20
2022-12-16T15:55:52.007Z,3.32
2022-12-16T15:59:04.585Z,3.29
2022-12-16T16:02:04.762Z,3.14
2022-12-16T16:04:53.762Z,3.26
2022-12-16T16:07:48.361Z,3.27
2022-12-16T16:10:44.067Z,3.27
2022-12-16T16:13:33.950Z,3.20
2022-12-16T16:16:22.816Z,3.11
2022-12-16T16:19:10.576Z,3.09
2022-12-16T16:21:56.914Z,3.16
2022-12-16T16:24:44.238Z,3.17
2022-12-16T16:30:44.175Z,2.91
2022-12-16T16:33:34.890Z,2.99
2022-12-16T16:36:33.375Z,2.94
2022-12-16T16:39:31.396Z,3.03
2022-12-16T16:43:18.607Z,3.06
2022-12-16T16:46:14.306Z,2.95
2022-12-16T16:49:05.729Z,2.90
2022-12-16T16:51:54.996Z,3.01
2022-12-16T16:54:45.780Z,3.08
2022-12-16T16:57:36.332Z,3.07
2022-12-16T17:00:26.756Z,3.09
2022-12-16T17:03:33.028Z,3.20
2022-12-16T17:06:24.713Z,3.18
2022-12-16T17:09:12.590Z,3.08
2022-12-16T17:12:01.620Z,2.98
2022-12-16T17:14:53.045Z,3.07
2022-12-16T17:17:39.525Z,3.09
2022-12-16T17:20:41.023Z,3.06
2022-12-16T17:23:30.448Z,3.01
2022-12-16T17:26:18.041Z,3.03
2022-12-16T17:29:07.917Z,3.03
2022-12-16T17:31:56.889Z,2.98
2022-12-16T17:34:45.231Z,2.96
2022-12-16T17:37:41.583Z,2.82
2022-12-16T17:40:32.817Z,2.96
2022-12-16T17:43:25.569Z,2.83
2022-12-16T17:46:23.051Z,2.84
2022-12-16T17:49:12.133Z,2.71
2022-12-16T17:52:03.000Z,2.82
2022-12-16T17:54:53.076Z,2.81
2022-12-16T17:57:42.318Z,2.79
2022-12-16T18:00:33.478Z,2.66
2022-12-16T18:03:23.653Z,2.76
2022-12-16T18:06:27.740Z,2.77
2022-12-16T18:09:17.186Z,2.68
2022-12-16T18:12:09.007Z,2.60
2022-12-16T18:15:16.791Z,2.54
2022-12-16T18:18:09.076Z,2.59
2022-12-16T18:20:57.243Z,2.50
2022-12-16T18:23:50.293Z,2.39
2022-12-16T18:26:38.406Z,2.38
2022-12-16T18:29:33.534Z,2.57
2022-12-16T18:36:44.193Z,2.40
2022-12-16T18:39:36.966Z,2.53
2022-12-16T18:42:34.455Z,2.40
2022-12-16T18:45:26.710Z,2.24
2022-12-16T18:48:16.647Z,2.27
2022-12-16T18:51:22.131Z,2.37
2022-12-16T18:54:22.986Z,2.42
2022-12-16T18:57:19.006Z,2.36
2022-12-16T19:00:12.179Z,2.27
2022-12-16T19:03:06.927Z,2.27
2022-12-16T19:05:55.409Z,2.35
2022-12-16T19:08:45.450Z,2.30
2022-12-16T19:11:39.857Z,2.39
2022-12-16T19:14:31.680Z,2.33
2022-12-16T19:17:23.188Z,2.28
2022-12-16T19:20:22.527Z,2.21
2022-12-16T19:23:12.773Z,2.17
2022-12-16T19:26:01.078Z,2.07
2022-12-16T19:28:50.089Z,1.98
2022-12-16T19:31:42.854Z,2.05
2022-12-16T19:34:30.284Z,2.11
2022-12-16T19:37:46.434Z,1.98
2022-12-16T19:40:36.412Z,2.06
2022-12-16T19:43:24.782Z,2.02
2022-12-16T19:46:17.289Z,1.84
2022-12-16T19:49:10.552Z,1.83
2022-12-16T19:52:00.076Z,1.93
2022-12-16T19:54:47.510Z,1.76
2022-12-16T19:57:35.222Z,1.66
2022-12-16T20:00:34.666Z,1.69
2022-12-16T20:03:27.527Z,1.86
2022-12-16T20:06:36.856Z,1.78
2022-12-16T20:09:27.533Z,1.69
2022-12-16T20:12:19.464Z,1.56
2022-12-16T20:15:09.244Z,1.45
2022-12-16T20:17:58.187Z,1.44
2022-12-16T20:21:00.240Z,1.35
2022-12-16T20:23:48.767Z,1.66
2022-12-16T20:26:44.136Z,1.54
2022-12-16T20:29:38.106Z,1.48
2022-12-16T20:32:26.899Z,1.58
2022-12-16T20:35:18.928Z,1.49
2022-12-16T20:38:12.262Z,1.37
2022-12-16T20:41:04.095Z,1.61
2022-12-16T20:43:55.319Z,1.50
2022-12-16T20:46:51.790Z,1.53
2022-12-16T20:49:42.855Z,1.44
2022-12-16T20:52:29.988Z,1.43
2022-12-16T20:55:23.033Z,1.55
2022-12-16T20:58:15.011Z,1.40
2022-12-16T21:01:04.581Z,1.55
2022-12-16T21:03:58.147Z,1.51
2022-12-16T21:06:49.584Z,1.34
2022-12-16T21:09:38.287Z,1.21
2022-12-16T21:12:31.450Z,1.39
2022-12-16T21:15:23.904Z,1.31
2022-12-16T21:18:13.557Z,1.40
2022-12-16T21:21:16.223Z,1.34
2022-12-16T21:24:24.762Z,1.38
2022-12-16T21:27:13.114Z,1.44
2022-12-16T21:30:03.818Z,1.47
2022-12-16T21:36:00.245Z,1.39
2022-12-16T21:38:56.132Z,1.33
2022-12-16T21:41:49.118Z,1.37
2022-12-16T21:44:44.382Z,1.49
2022-12-16T21:47:32.994Z,1.37
2022-12-16T21:50:33.841Z,1.35
2022-12-16T21:53:25.181Z,1.39
2022-12-16T21:56:22.141Z,1.38
2022-12-16T21:59:19.250Z,1.45
2022-12-16T22:02:11.442Z,1.47
2022-12-16T22:05:00.143Z,1.40
2022-12-16T22:07:50.536Z,1.41
2022-12-16T22:10:41.170Z,1.20
2022-12-16T22:13:39.987Z,1.16
2022-12-16T22:16:35.587Z,1.10
2022-12-16T22:19:26.808Z,1.06
2022-12-16T22:22:15.105Z,1.01
2022-12-16T22:25:03.152Z,0.99
2022-12-16T22:28:01.659Z,0.94
2022-12-16T22:31:05.492Z,0.82
2022-12-16T22:34:02.394Z,0.61
2022-12-16T22:36:52.777Z,0.65
2022-12-16T22:39:46.749Z,0.59
2022-12-16T22:42:40.252Z,0.61
2022-12-16T22:45:31.336Z,0.54
2022-12-16T22:48:34.420Z,0.54
2022-12-16T22:51:22.928Z,0.56
2022-12-16T22:54:12.292Z,0.53
2022-12-16T22:56:59.477Z,0.55
2022-12-16T22:59:49.311Z,0.50
2022-12-16T23:02:39.243Z,0.48
2022-12-16T23:05:33.675Z,0.45
2022-12-16T23:08:31.640Z,0.40
2022-12-16T23:11:22.944Z,0.38
2022-12-16T23:14:13.629Z,0.33
2022-12-16T23:17:04.949Z,0.33
2022-12-16T23:19:56.633Z,0.25
2022-12-16T23:22:50.213Z,0.35
2022-12-16T23:25:42.361Z,0.40
2022-12-16T23:28:29.145Z,0.34
2022-12-16T23:31:19.144Z,0.39
2022-12-16T23:34:12.799Z,0.42
2022-12-16T23:37:02.487Z,0.41
2022-12-16T23:42:56.288Z,0.36
2022-12-16T23:45:44.908Z,0.48
2022-12-16T23:48:33.188Z,0.43
2022-12-16T23:51:24.738Z,0.48
2022-12-16T23:54:14.548Z,0.49
2022-12-16T23:57:06.098Z,0.41
2022-12-16T23:59:54.273Z,0.34
